Time;durP1;ratioP1;P1;durP2;ratioP2;P2;SDS_P1;SDS_P2;PMS_P1;PMS_P2;Temp;Humidity;BMP_temperature;BMP_pressure;BME280_temperature;BME280_humidity;BME280_pressure;Samples;Min_cycle;Max_cycle;Signal;HPM_P1;HPM_P2
2022/01/15 00:03:08;;;;;;;16.12;6.87;;;;;;;3.14;91.45;101456.42;2869581;82;21012;-74
2022/01/15 00:07:10;;;;;;;12.03;5.83;;;;;;;3.22;91.48;101454.42;2869651;83;21039;-74
2022/01/15 00:11:12;;;;;;;9.83;5.40;;;;;;;3.33;91.39;101458.46;2869824;83;21515;-73
2022/01/15 00:15:21;;;;;;;27.82;7.92;;;;;;;3.35;90.10;101457.52;2870015;83;21040;-73
2022/01/15 00:19:21;;;;;;;21.50;6.65;;;;;;;3.24;89.20;101451.29;2836030;83;21543;-72
2022/01/15 00:23:22;;;;;;;14.40;6.25;;;;;;;3.14;89.34;101449.85;2870178;83;21023;-73
2022/01/15 00:27:23;;;;;;;31.60;10.88;;;;;;;2.75;90.86;101442.30;2870229;83;21027;-73
2022/01/15 00:31:25;;;;;;;14.03;8.65;;;;;;;2.66;94.10;101451.36;2901900;81;21002;-73
2022/01/15 00:35:28;;;;;;;25.48;9.80;;;;;;;2.76;94.98;101447.52;2887672;82;21481;-73
2022/01/15 00:39:30;;;;;;;19.87;8.50;;;;;;;2.85;94.18;101442.44;2878750;82;21007;-73
2022/01/15 00:43:32;;;;;;;18.67;9.93;;;;;;;2.67;93.16;101445.20;2918748;81;21486;-73
2022/01/15 00:47:34;;;;;;;29.45;9.98;;;;;;;2.50;93.71;101441.30;2888960;82;21061;-72
2022/01/15 00:51:35;;;;;;;16.93;9.60;;;;;;;2.45;93.98;101442.33;2879361;82;21031;-73
2022/01/15 00:55:37;;;;;;;15.88;9.15;;;;;;;2.29;94.38;101445.39;2919189;81;20993;-73
2022/01/15 00:59:38;;;;;;;16.55;9.98;;;;;;;2.21;95.47;101446.92;2888783;81;21013;-74
2022/01/15 01:03:40;;;;;;;16.55;9.95;;;;;;;2.24;95.41;101452.55;2878968;82;20980;-73
2022/01/15 01:07:42;;;;;;;24.55;11.65;;;;;;;2.17;95.88;101455.80;2972502;80;20990;-73
2022/01/15 01:11:48;;;;;;;21.93;12.40;;;;;;;2.07;95.39;101456.50;2972338;80;21014;-74
2022/01/15 01:24:07;;;;;;;30.12;14.50;;;;;;;1.92;97.46;101449.03;2971865;80;21002;-73
2022/01/15 01:28:25;;;;;;;18.48;10.03;;;;;;;2.01;97.31;101446.18;2971913;80;21357;-73
2022/01/15 01:36:49;;;;;;;18.50;10.58;;;;;;;2.20;97.83;101456.17;2926045;81;20995;-74
2022/01/15 01:40:44;;;;;;;21.75;12.63;;;;;;;2.23;96.09;101461.33;2923199;81;21076;-74
2022/01/15 01:45:10;;;;;;;25.68;13.13;;;;;;;2.16;95.40;101453.20;2925345;81;21018;-74
2022/01/15 01:49:14;;;;;;;26.33;11.55;;;;;;;2.26;95.51;101466.49;2886886;82;21368;-73
2022/01/15 01:53:15;;;;;;;23.27;12.95;;;;;;;2.31;96.23;101460.66;2925973;81;21002;-74
2022/01/15 01:57:17;;;;;;;32.10;12.75;;;;;;;2.34;96.11;101447.42;2925875;81;21014;-74
2022/01/15 02:01:18;;;;;;;18.07;11.35;;;;;;;2.43;96.04;101438.42;2887138;82;21519;-74
2022/01/15 02:05:21;;;;;;;15.45;10.15;;;;;;;2.47;95.64;101440.08;2926194;81;20978;-72
2022/01/15 02:09:24;;;;;;;19.27;11.00;;;;;;;2.37;96.51;101434.67;2887482;82;21000;-73
2022/01/15 02:13:26;;;;;;;17.27;8.78;;;;;;;2.41;95.76;101442.42;2926563;81;21049;-73
2022/01/15 02:17:29;;;;;;;17.55;10.18;;;;;;;2.27;95.11;101446.77;2926552;81;21030;-73
2022/01/15 02:25:54;;;;;;;22.25;12.23;;;;;;;2.25;95.05;101447.70;2977786;80;20985;-74
2022/01/15 02:29:55;;;;;;;22.37;11.75;;;;;;;2.36;94.95;101446.09;2976659;80;20958;-74
2022/01/15 02:34:00;;;;;;;23.00;11.75;;;;;;;2.44;94.51;101444.08;2970823;80;20954;-74
2022/01/15 02:38:09;;;;;;;18.75;12.10;;;;;;;2.49;94.45;101443.95;2972110;80;20974;-74
2022/01/15 02:42:10;;;;;;;17.87;10.72;;;;;;;2.49;94.59;101440.89;2971019;80;21020;-75
2022/01/15 02:46:34;;;;;;;22.62;10.40;;;;;;;2.56;93.51;101443.73;2972752;80;21009;-74
2022/01/15 02:50:22;;;;;;;24.98;10.55;;;;;;;2.57;92.69;101434.94;2968293;80;21049;-73
2022/01/15 02:54:24;;;;;;;21.97;10.15;;;;;;;2.64;92.27;101438.69;2972434;80;20997;-70
2022/01/15 02:58:25;;;;;;;15.05;9.65;;;;;;;2.63;91.90;101433.91;2973102;80;21060;-74
2022/01/15 03:02:31;;;;;;;17.65;9.35;;;;;;;2.65;91.24;101426.84;2972688;80;20994;-72
2022/01/15 03:06:30;;;;;;;20.00;10.45;;;;;;;2.62;90.50;101426.93;2972651;79;21036;-74
2022/01/15 03:10:32;;;;;;;18.77;10.78;;;;;;;2.34;91.20;101431.67;2973007;80;21076;-73
2022/01/15 03:14:34;;;;;;;14.83;9.78;;;;;;;1.99;93.00;101438.80;2973005;80;20986;-74
2022/01/15 03:18:35;;;;;;;18.10;10.00;;;;;;;1.89;94.64;101433.38;2972073;80;20981;-73
2022/01/15 03:22:37;;;;;;;20.57;11.38;;;;;;;1.77;95.25;101437.20;2973220;80;21041;-72
2022/01/15 03:26:38;;;;;;;16.90;9.68;;;;;;;1.69;95.18;101432.15;2974031;80;20977;-73
2022/01/15 03:30:40;;;;;;;18.30;10.70;;;;;;;1.64;95.09;101434.05;2973657;80;21021;-73
2022/01/15 03:34:42;;;;;;;19.90;11.28;;;;;;;1.51;94.81;101423.86;2973769;80;20985;-73
2022/01/15 03:38:43;;;;;;;33.78;13.05;;;;;;;1.42;93.62;101429.35;2974031;80;21037;-73
2022/01/15 03:42:46;;;;;;;20.10;12.63;;;;;;;1.28;95.71;101425.30;2973994;80;21009;-72
2022/01/15 03:46:47;;;;;;;22.00;14.00;;;;;;;1.19;97.72;101427.28;2973940;80;21032;-73
2022/01/15 03:50:49;;;;;;;35.90;12.25;;;;;;;1.22;98.37;101435.95;2973814;79;21002;-73
2022/01/15 03:54:50;;;;;;;36.20;14.65;;;;;;;1.24;99.14;101430.22;2973618;80;20966;-72
2022/01/15 03:58:52;;;;;;;26.42;14.68;;;;;;;1.37;98.70;101433.83;2973701;80;21000;-73
2022/01/15 04:02:55;;;;;;;29.10;12.93;;;;;;;1.36;98.07;101430.80;2973883;80;20946;-73
2022/01/15 04:06:57;;;;;;;25.17;13.13;;;;;;;1.24;97.51;101435.45;2974211;80;21001;-73
2022/01/15 04:10:59;;;;;;;28.52;16.10;;;;;;;1.22;97.37;101435.95;2973790;80;20989;-73
2022/01/15 04:15:00;;;;;;;27.85;13.78;;;;;;;1.32;97.38;101432.66;2973801;80;21013;-73
2022/01/15 04:19:03;;;;;;;17.10;10.88;;;;;;;1.43;97.29;101433.22;2973380;80;21049;-72
2022/01/15 04:23:05;;;;;;;29.82;15.15;;;;;;;1.56;96.75;101436.39;2942192;80;21056;-73
2022/01/15 04:27:06;;;;;;;15.38;10.48;;;;;;;1.72;97.18;101438.62;2972394;80;20997;-73
2022/01/15 04:31:08;;;;;;;26.33;14.53;;;;;;;1.76;97.18;101442.03;2971170;79;21014;-73
2022/01/15 04:35:10;;;;;;;24.02;11.35;;;;;;;1.83;96.94;101439.21;2964528;80;20993;-71
2022/01/15 04:39:12;;;;;;;19.05;8.55;;;;;;;1.87;95.99;101450.93;2972412;80;20974;-70
2022/01/15 04:43:14;;;;;;;14.87;10.58;;;;;;;1.90;94.90;101460.03;2972202;80;21025;-69
2022/01/15 04:47:15;;;;;;;32.93;10.40;;;;;;;1.91;94.83;101453.87;2972750;80;20962;-73
2022/01/15 04:51:17;;;;;;;13.95;9.73;;;;;;;2.01;94.58;101457.98;2971128;80;21028;-72
2022/01/15 04:55:18;;;;;;;24.00;10.15;;;;;;;2.09;94.22;101451.22;2971817;80;20934;-74
2022/01/15 04:59:20;;;;;;;15.65;9.23;;;;;;;2.16;93.94;101447.95;2972721;80;21455;-70
2022/01/15 05:03:22;;;;;;;22.05;8.50;;;;;;;2.19;94.01;101449.20;2971711;80;20958;-74
2022/01/15 05:07:23;;;;;;;22.67;10.08;;;;;;;2.27;93.68;101455.08;2972202;80;20974;-74
2022/01/15 05:11:31;;;;;;;20.82;9.53;;;;;;;2.31;93.09;101447.52;2972232;80;21001;-70
2022/01/15 05:15:31;;;;;;;22.35;9.45;;;;;;;2.35;92.99;101449.14;2972750;79;21032;-74
2022/01/15 05:19:33;;;;;;;16.60;8.95;;;;;;;2.39;92.54;101456.06;2972391;80;21012;-73
2022/01/15 05:23:35;;;;;;;13.45;9.40;;;;;;;2.37;92.50;101448.68;2969910;80;21014;-70
2022/01/15 05:27:36;;;;;;;31.35;11.03;;;;;;;2.41;92.08;101438.48;2971411;80;20981;-74
2022/01/15 05:31:38;;;;;;;31.52;11.90;;;;;;;2.41;91.76;101442.86;2969148;80;21005;-74
2022/01/15 05:35:40;;;;;;;22.85;8.58;;;;;;;2.44;91.60;101448.02;2927336;81;20999;-73
2022/01/15 05:39:41;;;;;;;19.37;10.50;;;;;;;2.43;91.44;101454.18;3024228;78;21068;-72
2022/01/15 05:43:43;;;;;;;16.17;10.38;;;;;;;2.45;91.43;101459.41;3024261;78;20990;-73
2022/01/15 05:47:44;;;;;;;18.75;8.63;;;;;;;2.42;91.19;101457.28;3025246;77;21009;-73
2022/01/15 05:51:46;;;;;;;20.62;10.35;;;;;;;2.41;90.88;101460.81;3023778;78;21010;-74
2022/01/15 05:55:47;;;;;;;19.17;10.72;;;;;;;2.41;90.87;101448.12;3025181;78;20998;-73
2022/01/15 05:59:51;;;;;;;28.27;10.20;;;;;;;2.37;90.89;101443.43;3024447;78;20938;-71
2022/01/15 06:03:53;;;;;;;19.10;10.48;;;;;;;2.38;91.09;101442.52;3022940;78;21041;-74
2022/01/15 06:07:55;;;;;;;22.70;9.28;;;;;;;2.38;91.18;101436.39;3024302;78;20955;-72
2022/01/15 06:11:57;;;;;;;26.23;14.35;;;;;;;2.31;91.37;101434.86;3024511;78;21022;-74
2022/01/15 06:15:58;;;;;;;23.92;10.32;;;;;;;2.30;91.33;101437.92;3021617;78;21014;-70
2022/01/15 06:20:00;;;;;;;30.45;12.18;;;;;;;2.30;91.25;101452.83;3025291;78;21002;-74
2022/01/15 06:24:01;;;;;;;20.85;12.98;;;;;;;2.25;91.97;101451.17;3025034;78;21005;-70
2022/01/15 06:28:03;;;;;;;26.50;12.15;;;;;;;2.30;93.37;101456.30;3023186;78;20971;-75
2022/01/15 06:32:06;;;;;;;20.00;11.08;;;;;;;2.23;96.65;101448.20;3009269;78;21044;-77
2022/01/15 06:36:07;;;;;;;21.52;11.03;;;;;;;2.26;98.09;101454.67;2987966;79;21028;-79
2022/01/15 06:40:11;;;;;;;16.93;10.35;;;;;;;2.25;98.83;101452.95;2988505;79;21047;-81
2022/01/15 06:44:12;;;;;;;24.20;12.18;;;;;;;2.26;99.04;101461.23;2988787;79;21005;-79
2022/01/15 06:48:14;;;;;;;25.85;12.90;;;;;;;2.31;98.71;101464.59;2982053;79;21005;-83
2022/01/15 06:52:15;;;;;;;25.10;13.30;;;;;;;2.38;98.57;101470.09;2987460;79;20997;-83
2022/01/15 06:56:17;;;;;;;25.30;13.68;;;;;;;2.42;98.34;101461.22;2988685;79;20993;-78
2022/01/15 07:00:18;;;;;;;28.20;10.78;;;;;;;2.38;98.73;101472.72;2988948;79;20933;-77
2022/01/15 07:04:20;;;;;;;29.20;10.70;;;;;;;2.34;98.51;101475.00;2990329;79;21021;-81
2022/01/15 07:08:22;;;;;;;30.80;11.68;;;;;;;2.37;98.50;101480.63;2989026;79;21462;-80
2022/01/15 07:12:24;;;;;;;21.23;11.33;;;;;;;2.38;98.67;101479.29;2991518;79;21004;-77
2022/01/15 07:16:25;;;;;;;38.78;15.68;;;;;;;2.42;98.10;101494.05;2991971;79;21039;-79
2022/01/15 07:20:28;;;;;;;24.05;13.40;;;;;;;2.46;97.19;101490.02;2991396;79;20989;-80
2022/01/15 07:24:29;;;;;;;29.20;13.18;;;;;;;2.43;96.11;101501.02;2991306;79;21770;-70
2022/01/15 07:28:31;;;;;;;28.30;13.38;;;;;;;2.27;95.92;101515.04;2991290;76;21569;-80
2022/01/15 07:32:33;;;;;;;27.90;13.18;;;;;;;2.21;96.10;101510.40;3006379;78;21014;-80
2022/01/15 07:36:35;;;;;;;26.82;15.35;;;;;;;2.21;96.01;101513.88;2969256;79;21021;-83
2022/01/15 07:40:36;;;;;;;30.17;13.18;;;;;;;2.18;96.00;101511.80;2926668;81;20998;-81
2022/01/15 07:44:38;;;;;;;27.90;16.70;;;;;;;2.18;95.28;101521.84;3022625;78;21002;-84
2022/01/15 07:48:39;;;;;;;21.93;13.55;;;;;;;2.32;95.19;101521.45;3022931;78;20963;-85
2022/01/15 07:52:41;;;;;;;25.32;13.90;;;;;;;2.36;94.46;101531.00;3024161;78;20982;-82
2022/01/15 07:56:43;;;;;;;29.57;13.85;;;;;;;2.30;95.29;101523.73;3024291;78;21609;-84
2022/01/15 08:00:44;;;;;;;29.52;16.55;;;;;;;2.25;95.94;101526.47;3024320;78;20950;-81
2022/01/15 08:04:46;;;;;;;29.35;15.72;;;;;;;2.28;96.71;101517.20;3025040;78;20978;-80
2022/01/15 08:08:47;;;;;;;26.95;14.23;;;;;;;2.34;96.69;101520.11;3027444;78;21013;-73
2022/01/15 08:12:49;;;;;;;29.75;15.55;;;;;;;2.34;96.96;101520.95;3011797;78;21069;-84
2022/01/15 08:16:51;;;;;;;35.43;17.85;;;;;;;2.40;96.50;101530.44;2968034;79;21057;-85
2022/01/15 08:20:53;;;;;;;29.32;16.40;;;;;;;2.43;97.14;101533.85;2926183;81;21065;-83
2022/01/15 08:24:54;;;;;;;35.43;17.42;;;;;;;2.56;97.36;101536.98;3024194;78;20997;-82
2022/01/15 08:28:56;;;;;;;29.65;17.82;;;;;;;2.52;97.73;101545.87;3023383;78;21029;-80
2022/01/15 08:32:59;;;;;;;27.67;16.30;;;;;;;2.51;98.08;101552.03;3006590;78;21071;-80
2022/01/15 08:37:00;;;;;;;45.92;20.10;;;;;;;2.49;98.63;101539.83;2989324;79;20977;-81
2022/01/15 08:41:02;;;;;;;39.47;21.00;;;;;;;2.56;98.65;101545.34;2989709;79;21036;-79
2022/01/15 08:45:08;;;;;;;39.05;21.05;;;;;;;2.60;98.82;101548.28;2990033;79;21668;-81
2022/01/15 08:49:11;;;;;;;37.05;18.57;;;;;;;2.63;98.97;101557.82;2989723;79;20973;-79
2022/01/15 08:53:13;;;;;;;38.75;18.92;;;;;;;2.79;98.69;101567.47;2989639;79;21020;-80
2022/01/15 08:57:15;;;;;;;34.35;15.08;;;;;;;2.81;98.83;101557.77;2988240;78;21021;-80
2022/01/15 09:01:16;;;;;;;30.85;17.87;;;;;;;2.86;98.39;101562.43;2989586;79;20977;-80
2022/01/15 09:05:18;;;;;;;29.80;15.90;;;;;;;2.88;98.46;101571.12;2989593;79;21046;-79
2022/01/15 09:09:20;;;;;;;31.93;14.83;;;;;;;2.86;98.54;101553.23;2989629;79;21023;-80
2022/01/15 09:13:22;;;;;;;22.67;12.85;;;;;;;2.91;98.70;101564.46;2990309;79;21064;-76
2022/01/15 09:17:23;;;;;;;30.88;15.10;;;;;;;2.97;99.01;101570.88;2990601;79;20965;-77
2022/01/15 09:21:25;;;;;;;26.02;16.62;;;;;;;3.10;98.66;101573.13;2991406;79;20985;-78
2022/01/15 09:25:27;;;;;;;35.85;17.57;;;;;;;3.17;98.42;101578.63;2990370;79;21012;-76
2022/01/15 09:33:45;;;;;;;28.90;16.67;;;;;;;3.55;97.77;101591.05;2990151;79;21072;-80
2022/01/15 09:37:52;;;;;;;33.92;15.35;;;;;;;3.53;97.11;101588.90;2990315;79;20977;-79
2022/01/15 09:41:54;;;;;;;31.42;14.87;;;;;;;3.63;97.00;101580.73;2990699;79;21007;-83
2022/01/15 09:45:58;;;;;;;26.85;16.12;;;;;;;3.66;97.00;101580.62;2990132;77;21524;-79
2022/01/15 09:50:03;;;;;;;24.98;14.25;;;;;;;3.60;96.62;101572.94;2990061;77;21040;-78
2022/01/15 09:54:05;;;;;;;29.00;14.73;;;;;;;3.54;96.85;101571.36;2989617;77;21561;-79
2022/01/15 09:58:07;;;;;;;31.65;14.07;;;;;;;3.68;97.01;101568.27;2988183;77;21005;-74
2022/01/15 10:02:09;;;;;;;23.50;13.72;;;;;;;3.71;97.07;101570.36;2988677;77;20953;-75
2022/01/15 10:06:11;;;;;;;28.67;17.10;;;;;;;3.71;96.96;101573.44;2989487;79;21048;-74
2022/01/15 10:10:20;;;;;;;24.43;11.68;;;;;;;3.86;96.86;101574.25;2989959;79;21386;-74
2022/01/15 10:14:37;;;;;;;31.73;14.15;;;;;;;3.85;96.41;101577.80;2989857;79;21013;-75
2022/01/15 10:18:47;;;;;;;25.00;13.03;;;;;;;3.96;96.68;101573.97;2990621;79;21021;-74
2022/01/15 10:22:52;;;;;;;26.87;14.70;;;;;;;4.12;96.08;101571.66;2990837;79;21577;-74
2022/01/15 10:26:53;;;;;;;27.75;13.00;;;;;;;4.23;95.90;101576.56;2990988;79;21560;-73
2022/01/15 10:30:56;;;;;;;25.20;14.18;;;;;;;4.48;95.89;101571.73;2990088;77;21016;-74
2022/01/15 10:35:00;;;;;;;26.42;14.80;;;;;;;4.53;95.28;101571.14;2992102;78;21060;-73
2022/01/15 10:39:20;;;;;;;26.37;17.87;;;;;;;4.65;94.86;101570.68;2993144;79;21047;-73
2022/01/15 10:43:33;;;;;;;24.15;16.75;;;;;;;4.74;94.28;101572.59;2993388;77;20981;-72
2022/01/15 10:47:43;;;;;;;26.95;14.87;;;;;;;4.85;93.82;101558.53;2984316;79;21009;-73
2022/01/15 10:51:45;;;;;;;18.87;11.55;;;;;;;4.89;92.90;101564.09;2993144;79;20994;-72
2022/01/15 10:55:50;;;;;;;32.15;12.10;;;;;;;4.92;92.09;101557.41;2993490;79;21000;-72
2022/01/15 11:00:24;;;;;;;20.82;13.35;;;;;;;4.93;91.64;101564.41;2961191;78;21037;-72
2022/01/15 11:04:35;;;;;;;28.70;13.30;;;;;;;5.08;92.36;101559.44;2993514;78;20950;-73
2022/01/15 11:08:40;;;;;;;35.52;15.95;;;;;;;5.09;91.64;101555.87;2993749;79;20954;-73
2022/01/15 11:12:42;;;;;;;28.98;17.70;;;;;;;5.21;91.80;101538.71;2993553;79;21024;-72
2022/01/15 11:16:45;;;;;;;29.63;16.95;;;;;;;5.24;90.87;101542.09;2993207;79;29838;-72
2022/01/15 11:20:51;;;;;;;47.98;21.33;;;;;;;5.34;90.84;101529.88;2993705;79;21032;-73
2022/01/15 11:24:52;;;;;;;27.63;15.37;;;;;;;5.34;91.03;101525.92;2994142;79;21016;-72
2022/01/15 11:28:57;;;;;;;29.18;19.40;;;;;;;5.43;90.24;101525.54;2993766;79;21341;-71
2022/01/15 11:32:59;;;;;;;30.35;18.27;;;;;;;5.49;90.63;101527.92;2993837;78;21044;-72
2022/01/15 11:37:17;;;;;;;43.33;19.40;;;;;;;5.44;90.17;101527.25;2993905;79;20977;-74
2022/01/15 11:41:29;;;;;;;26.23;15.10;;;;;;;5.56;90.10;101526.77;2993395;79;21493;-72
2022/01/15 11:45:36;;;;;;;29.50;16.25;;;;;;;5.63;89.84;101526.06;2990443;79;20997;-77
2022/01/15 11:49:44;;;;;;;24.47;15.03;;;;;;;5.60;88.73;101519.59;2993616;79;21005;-76
2022/01/15 11:53:49;;;;;;;25.55;13.25;;;;;;;5.62;88.83;101520.38;2993519;79;20993;-83
2022/01/15 11:57:53;;;;;;;19.23;9.95;;;;;;;5.76;87.64;101514.52;2993699;79;21008;-76
2022/01/15 12:01:57;;;;;;;26.48;10.90;;;;;;;5.95;85.27;101506.66;2993426;78;21043;-77
2022/01/15 12:05:59;;;;;;;21.33;11.28;;;;;;;5.92;82.55;101493.59;2993564;79;21008;-78
2022/01/15 12:10:03;;;;;;;31.45;13.83;;;;;;;5.79;80.69;101487.98;2992643;79;21095;-77
2022/01/15 12:14:04;;;;;;;34.38;11.88;;;;;;;5.85;81.36;101496.11;2992678;79;21005;-81
2022/01/15 12:18:20;;;;;;;27.30;12.23;;;;;;;5.84;81.10;101480.72;2992592;79;20953;-77
2022/01/15 12:22:43;;;;;;;19.15;9.00;;;;;;;5.96;82.54;101475.84;2992880;79;20989;-78
2022/01/15 12:27:00;;;;;;;25.85;11.43;;;;;;;5.89;81.04;101480.52;2992377;79;20993;-76
2022/01/15 12:31:02;;;;;;;;;;;;;;;6.06;81.46;101472.37;2994395;77;21028;-75
2022/01/15 12:35:10;;;;;;;20.82;8.20;;;;;;;6.03;79.76;101469.39;3018756;78;20176;-73
2022/01/15 12:39:09;;;;;;;23.25;10.95;;;;;;;6.17;79.56;101449.44;3027055;78;21014;-75
2022/01/15 12:43:18;;;;;;;20.65;8.20;;;;;;;6.16;78.12;101457.81;3027182;78;20998;-71
2022/01/15 12:47:22;;;;;;;14.90;8.70;;;;;;;6.04;78.30;101447.80;3027229;78;20959;-73
2022/01/15 12:51:24;;;;;;;22.60;8.30;;;;;;;6.08;78.93;101444.94;3027237;78;21025;-74
2022/01/15 12:55:34;;;;;;;14.90;7.67;;;;;;;6.06;79.45;101440.19;3027047;78;21002;-75
2022/01/15 12:59:38;;;;;;;16.17;7.83;;;;;;;5.96;79.06;101428.30;3027352;78;21073;-75
2022/01/15 13:03:41;;;;;;;20.90;7.92;;;;;;;5.88;78.92;101415.43;3027332;78;21022;-76
2022/01/15 13:07:53;;;;;;;16.97;9.35;;;;;;;5.86;78.42;101415.48;3027139;78;21034;-78
2022/01/15 13:11:58;;;;;;;19.77;9.70;;;;;;;5.68;78.31;101413.64;3027513;78;21061;-78
2022/01/15 13:16:14;;;;;;;31.60;11.13;;;;;;;5.68;79.83;101417.60;3027830;78;21026;-77
2022/01/15 13:20:29;;;;;;;24.57;10.40;;;;;;;5.67;80.62;101410.16;2971633;79;20973;-77
2022/01/15 13:24:31;;;;;;;17.42;10.50;;;;;;;5.69;80.90;101408.31;2914029;81;21550;-75
2022/01/15 13:28:34;;;;;;;27.07;12.88;;;;;;;5.75;81.10;101412.47;2968422;80;20990;-77
2022/01/15 13:32:36;;;;;;;22.10;8.75;;;;;;;5.77;80.62;101409.75;2924737;80;21092;-76
2022/01/15 13:36:40;;;;;;;34.70;18.42;;;;;;;5.68;80.38;101410.55;2915438;81;21020;-82
2022/01/15 13:40:48;;;;;;;29.50;14.65;;;;;;;5.71;80.85;101413.06;2915757;81;21013;-80
2022/01/15 13:44:50;;;;;;;21.80;12.70;;;;;;;5.72;81.51;101412.61;2914467;81;20969;-81
2022/01/15 13:48:55;;;;;;;35.38;21.23;;;;;;;5.88;82.46;101409.27;2915898;81;21006;-75
2022/01/15 13:53:06;;;;;;;31.97;19.27;;;;;;;5.90;81.60;101418.02;2916327;81;20962;-75
2022/01/15 13:57:13;;;;;;;28.65;15.35;;;;;;;5.89;81.80;101421.55;2916113;81;20962;-78
2022/01/15 14:01:29;;;;;;;25.80;13.38;;;;;;;5.77;81.70;101424.27;2939959;80;21014;-77
2022/01/15 14:05:31;;;;;;;25.82;8.98;;;;;;;5.49;82.24;101423.66;2933325;81;21053;-74
2022/01/15 14:09:35;;;;;;;24.65;12.00;;;;;;;5.29;82.82;101428.48;2933633;81;21002;-75
2022/01/15 14:13:37;;;;;;;25.37;11.60;;;;;;;5.34;83.06;101418.58;3025277;78;21018;-75
2022/01/15 14:17:42;;;;;;;35.90;12.80;;;;;;;5.24;84.06;101420.74;3026039;78;20971;-74
2022/01/15 14:21:42;;;;;;;25.15;11.90;;;;;;;5.27;84.06;101420.61;3025717;78;21033;-74
2022/01/15 14:25:46;;;;;;;26.30;13.13;;;;;;;5.17;83.79;101429.84;3025454;78;21042;-71
2022/01/15 14:29:47;;;;;;;23.40;11.48;;;;;;;5.20;83.40;101424.44;3025658;78;21072;-74
2022/01/15 14:33:54;;;;;;;17.67;10.98;;;;;;;5.17;84.08;101432.48;3015152;78;22301;-75
2022/01/15 14:37:57;;;;;;;21.87;12.63;;;;;;;5.11;83.91;101434.03;2992233;79;21055;-75
2022/01/15 14:41:58;;;;;;;27.87;14.05;;;;;;;5.00;83.88;101436.66;2992616;79;21004;-75
2022/01/15 14:46:02;;;;;;;20.88;12.45;;;;;;;4.86;83.72;101439.84;2992174;79;21005;-74
2022/01/15 14:50:05;;;;;;;27.00;14.53;;;;;;;4.77;83.56;101434.92;2992364;79;21013;-75
2022/01/15 14:54:07;;;;;;;24.45;14.70;;;;;;;4.61;82.89;101430.70;2992224;79;21016;-76
2022/01/15 14:58:09;;;;;;;26.48;12.30;;;;;;;4.54;82.16;101428.77;2991562;79;21059;-70
2022/01/15 15:02:10;;;;;;;26.52;11.38;;;;;;;4.34;80.49;101432.17;2991821;79;21001;-75
2022/01/15 15:06:13;;;;;;;23.55;9.73;;;;;;;4.29;80.20;101429.70;2991834;79;21021;-76
2022/01/15 15:10:14;;;;;;;32.03;10.68;;;;;;;4.10;79.90;101433.45;2991500;79;20997;-78
2022/01/15 15:14:16;;;;;;;24.02;12.10;;;;;;;3.97;80.27;101428.25;2991430;79;21348;-74
2022/01/15 15:18:18;;;;;;;28.23;9.25;;;;;;;3.85;80.54;101419.86;2991731;79;21481;-72
2022/01/15 15:22:20;;;;;;;36.40;13.20;;;;;;;3.76;80.25;101416.25;2991677;79;21071;-74
2022/01/15 15:26:23;;;;;;;14.18;7.17;;;;;;;3.75;80.43;101414.53;2991554;78;21033;-74
2022/01/15 15:30:24;;;;;;;13.83;8.75;;;;;;;3.60;79.80;101417.22;2991512;79;20989;-73
2022/01/15 15:34:26;;;;;;;16.20;7.40;;;;;;;3.46;80.21;101416.37;3004025;78;21042;-74
2022/01/15 15:38:29;;;;;;;17.75;9.33;;;;;;;3.31;80.22;101419.52;3025524;78;20991;-74
2022/01/15 15:42:31;;;;;;;24.35;8.53;;;;;;;3.31;80.75;101415.58;3025321;78;21073;-73
2022/01/15 15:46:33;;;;;;;12.88;8.58;;;;;;;3.35;81.11;101413.27;3025737;78;21006;-73
2022/01/15 15:50:35;;;;;;;26.23;11.12;;;;;;;3.37;80.68;101412.77;3026062;78;21053;-71
2022/01/15 15:54:37;;;;;;;23.02;10.55;;;;;;;3.38;80.00;101417.95;3025962;78;21049;-72
2022/01/15 15:58:39;;;;;;;25.62;10.15;;;;;;;3.29;79.48;101419.11;3025928;78;21044;-72
2022/01/15 16:02:41;;;;;;;16.82;11.12;;;;;;;3.22;79.75;101406.22;2977837;78;20995;-79
2022/01/15 16:06:42;;;;;;;23.85;12.28;;;;;;;3.27;80.29;101405.63;2970987;80;21006;-75
2022/01/15 16:10:44;;;;;;;20.05;11.12;;;;;;;3.36;80.29;101404.47;2970989;80;20971;-74
2022/01/15 16:14:46;;;;;;;22.75;10.93;;;;;;;3.39;79.51;101410.94;2945878;80;21479;-74
2022/01/15 16:18:48;;;;;;;17.90;11.18;;;;;;;3.40;79.28;101406.08;2971372;80;21010;-73
2022/01/15 16:22:50;;;;;;;29.50;11.75;;;;;;;3.41;79.17;101413.05;2971559;80;20983;-74
2022/01/15 16:26:51;;;;;;;25.37;11.33;;;;;;;3.36;78.83;101413.67;2971129;80;21050;-74
2022/01/15 16:30:53;;;;;;;21.00;11.15;;;;;;;3.28;79.16;101417.40;2971445;80;21005;-72
2022/01/15 16:34:55;;;;;;;24.05;11.95;;;;;;;3.29;79.36;101414.33;2971113;80;20990;-74
2022/01/15 16:38:56;;;;;;;31.33;11.83;;;;;;;3.27;79.49;101413.05;2971495;80;21023;-71
2022/01/15 16:42:58;;;;;;;25.92;12.43;;;;;;;3.23;79.35;101410.56;2971193;80;21057;-73
2022/01/15 16:47:01;;;;;;;27.82;13.48;;;;;;;3.22;79.54;101404.47;2971123;80;21534;-74
2022/01/15 16:51:03;;;;;;;17.17;11.73;;;;;;;3.23;79.61;101408.81;2971406;80;21041;-73
2022/01/15 16:55:11;;;;;;;21.35;12.05;;;;;;;3.29;79.95;101406.44;2971407;80;21013;-74
2022/01/15 16:59:12;;;;;;;20.65;10.80;;;;;;;3.39;80.36;101406.52;2971335;80;20994;-72
2022/01/15 17:03:14;;;;;;;19.27;9.63;;;;;;;3.50;80.17;101402.20;2971130;80;21005;-72
2022/01/15 17:07:16;;;;;;;14.58;8.38;;;;;;;3.61;80.13;101400.98;2970786;80;20987;-75
2022/01/15 17:11:17;;;;;;;21.17;10.90;;;;;;;3.67;79.60;101401.64;2971094;80;21010;-75
2022/01/15 17:15:19;;;;;;;27.22;10.70;;;;;;;3.70;79.52;101398.02;2971105;80;21034;-74
2022/01/15 17:19:23;;;;;;;22.15;11.65;;;;;;;3.70;79.41;101394.07;2971135;80;21033;-73
2022/01/15 17:23:28;;;;;;;26.30;10.25;;;;;;;3.75;79.59;101396.11;2971666;80;21372;-74
2022/01/15 17:27:28;;;;;;;27.73;13.20;;;;;;;3.73;79.28;101391.33;2970804;80;21040;-74
2022/01/15 17:31:30;;;;;;;28.57;16.48;;;;;;;3.75;79.39;101384.27;3003300;77;21561;-75
2022/01/15 17:35:32;;;;;;;35.85;18.02;;;;;;;3.71;79.08;101380.00;3010001;78;21528;-74
2022/01/15 17:39:35;;;;;;;32.17;14.93;;;;;;;3.60;78.63;101380.38;2992458;79;20962;-75
2022/01/15 17:43:37;;;;;;;25.05;12.00;;;;;;;3.60;79.39;101375.59;2993890;79;21012;-73
2022/01/15 17:47:40;;;;;;;25.85;11.80;;;;;;;3.53;79.05;101369.20;2994060;78;20969;-73
2022/01/15 17:51:42;;;;;;;32.25;17.27;;;;;;;3.44;79.15;101368.22;2993685;79;20985;-73
2022/01/15 17:55:43;;;;;;;40.63;26.07;;;;;;;3.39;79.50;101368.84;2993971;79;20988;-73
2022/01/15 17:59:45;;;;;;;29.72;14.90;;;;;;;3.43;79.50;101375.72;2993519;79;21044;-72
2022/01/15 18:03:46;;;;;;;28.35;17.20;;;;;;;3.49;79.84;101374.66;2993041;79;21024;-72
2022/01/15 18:07:48;;;;;;;39.33;17.05;;;;;;;3.56;79.70;101370.44;2993292;79;21056;-75
2022/01/15 18:11:50;;;;;;;40.35;15.45;;;;;;;3.63;79.78;101365.80;2993498;79;20956;-77
2022/01/15 18:15:52;;;;;;;26.40;14.47;;;;;;;3.72;79.69;101360.66;2993585;79;20937;-76
2022/01/15 18:19:54;;;;;;;35.95;18.07;;;;;;;3.74;79.08;101354.91;2993446;79;20961;-75
2022/01/15 18:23:55;;;;;;;40.80;18.60;;;;;;;3.72;79.27;101354.08;2993474;79;21469;-75
2022/01/15 18:27:57;;;;;;;36.98;15.98;;;;;;;3.74;79.04;101353.59;2993467;78;21390;-75
2022/01/15 18:31:58;;;;;;;36.20;16.97;;;;;;;3.73;79.51;101349.22;3000908;78;21029;-75
2022/01/15 18:36:00;;;;;;;39.63;21.23;;;;;;;3.76;79.18;101353.08;2989827;78;21041;-76
2022/01/15 18:40:09;;;;;;;57.10;41.48;;;;;;;3.69;78.97;101355.07;2990200;79;21009;-77
2022/01/15 18:44:11;;;;;;;50.80;33.85;;;;;;;3.53;79.24;101337.63;2990461;79;21482;-72
2022/01/15 18:48:12;;;;;;;115.17;64.07;;;;;;;3.40;79.53;101335.89;2989911;79;21005;-72
2022/01/15 18:52:14;;;;;;;125.22;71.95;;;;;;;3.21;79.97;101345.33;2990218;79;21045;-74
2022/01/15 18:56:19;;;;;;;126.12;72.67;;;;;;;3.15;80.79;101342.48;2990220;79;21029;-75
2022/01/15 19:00:23;;;;;;;97.75;52.62;;;;;;;3.11;80.48;101339.09;2976360;79;21282;-75
2022/01/15 19:04:24;;;;;;;74.87;43.48;;;;;;;2.96;80.92;101364.56;2940763;81;21562;-71